createdAt,value
2022-08-14T00:02:01.453Z,1.60
2022-08-14T00:04:35.665Z,1.30
2022-08-14T00:07:11.350Z,1.33
2022-08-14T00:09:39.560Z,1.37
2022-08-14T00:12:33.083Z,1.30
2022-08-14T00:15:08.903Z,1.70
2022-08-14T00:17:38.155Z,1.43
2022-08-14T00:20:23.832Z,1.77
2022-08-14T00:22:57.495Z,1.43
2022-08-14T00:25:30.706Z,1.40
2022-08-14T00:28:15.370Z,1.60
2022-08-14T00:30:46.722Z,1.53
2022-08-14T00:33:15.976Z,1.60
2022-08-14T00:36:36.542Z,1.60
2022-08-14T00:38:35.192Z,1.80
2022-08-14T00:41:06.976Z,1.50
2022-08-14T00:43:43.089Z,1.53
2022-08-14T00:46:30.151Z,1.87
2022-08-14T00:49:00.277Z,1.60
2022-08-14T00:51:36.807Z,1.67
2022-08-14T00:54:16.881Z,1.50
2022-08-14T00:56:50.757Z,1.80
2022-08-14T00:59:23.379Z,1.63
2022-08-14T01:01:53.010Z,1.80
2022-08-14T01:04:52.187Z,1.90
2022-08-14T01:07:14.245Z,1.97
2022-08-14T01:09:42.720Z,1.70
2022-08-14T01:12:11.884Z,1.90
2022-08-14T01:14:40.857Z,1.73
2022-08-14T01:17:09.106Z,1.60
2022-08-14T01:19:54.358Z,1.93
2022-08-14T01:22:26.655Z,2.20
2022-08-14T01:24:54.907Z,2.20
2022-08-14T01:27:24.695Z,2.00
2022-08-14T01:30:01.134Z,2.00
2022-08-14T01:32:37.610Z,1.90
2022-08-14T01:36:04.641Z,2.00
2022-08-14T01:38:09.388Z,1.73
2022-08-14T01:40:41.750Z,1.90
2022-08-14T01:43:18.334Z,2.17
2022-08-14T01:46:06.144Z,1.80
2022-08-14T01:48:37.380Z,1.60
2022-08-14T01:51:20.139Z,1.60
2022-08-14T01:53:54.942Z,1.80
2022-08-14T01:56:30.808Z,1.97
2022-08-14T02:01:58.467Z,2.43
2022-08-14T02:04:55.839Z,1.77
2022-08-14T02:07:44.893Z,1.80
2022-08-14T02:10:13.089Z,1.67
2022-08-14T02:12:44.019Z,1.80
2022-08-14T02:15:12.721Z,1.80
2022-08-14T02:17:43.819Z,1.60
2022-08-14T02:20:14.042Z,1.80
2022-08-14T02:22:47.603Z,1.93
2022-08-14T02:25:17.613Z,1.87
2022-08-14T02:28:25.653Z,2.00
2022-08-14T02:30:34.803Z,1.80
2022-08-14T02:33:07.562Z,2.00
2022-08-14T02:35:40.882Z,1.50
2022-08-14T02:38:11.933Z,1.80
2022-08-14T02:40:58.970Z,2.00
2022-08-14T02:43:36.768Z,1.70
2022-08-14T02:46:05.832Z,1.67
2022-08-14T02:49:04.487Z,1.80
2022-08-14T02:51:24.509Z,1.67
2022-08-14T02:53:59.082Z,1.70
2022-08-14T02:56:30.411Z,1.80
2022-08-14T02:59:17.169Z,1.50
2022-08-14T03:01:50.905Z,2.30
2022-08-14T03:04:23.405Z,1.83
2022-08-14T03:07:06.115Z,1.80
2022-08-14T03:10:25.370Z,1.73
2022-08-14T03:12:31.661Z,1.73
2022-08-14T03:15:14.259Z,1.80
2022-08-14T03:17:57.542Z,1.50
2022-08-14T03:20:27.855Z,1.50
2022-08-14T03:22:56.179Z,1.60
2022-08-14T03:25:24.040Z,1.60
2022-08-14T03:27:58.609Z,1.40
2022-08-14T03:30:38.774Z,1.87
2022-08-14T03:33:11.398Z,2.23
2022-08-14T03:36:00.293Z,1.60
2022-08-14T03:39:13.005Z,1.80
2022-08-14T03:41:20.278Z,1.73
2022-08-14T03:44:00.929Z,1.50
2022-08-14T03:46:38.880Z,1.80
2022-08-14T03:49:29.338Z,1.77
2022-08-14T03:52:00.683Z,1.50
2022-08-14T03:54:29.730Z,1.40
2022-08-14T03:57:02.321Z,1.60
2022-08-14T03:59:32.324Z,1.60
2022-08-14T04:02:02.154Z,1.70
2022-08-14T04:04:30.878Z,1.90
2022-08-14T04:07:00.126Z,1.50
2022-08-14T04:09:28.086Z,1.77
2022-08-14T04:11:58.273Z,1.50
2022-08-14T04:14:29.104Z,1.80
2022-08-14T04:16:58.686Z,2.33
2022-08-14T04:19:28.071Z,2.03
2022-08-14T04:22:03.740Z,2.03
2022-08-14T04:24:37.746Z,1.87
2022-08-14T04:27:09.537Z,2.10
2022-08-14T04:29:39.305Z,1.87
2022-08-14T04:32:58.748Z,1.93
2022-08-14T04:34:58.074Z,1.70
2022-08-14T04:37:45.560Z,1.77
2022-08-14T04:40:31.671Z,1.80
2022-08-14T04:43:17.750Z,1.60
2022-08-14T04:45:51.118Z,1.70
2022-08-14T04:48:42.811Z,1.93
2022-08-14T04:51:12.612Z,2.40
2022-08-14T04:53:43.974Z,1.90
2022-08-14T04:56:31.028Z,2.40
2022-08-14T04:59:05.230Z,1.90
2022-08-14T05:01:41.761Z,1.67
2022-08-14T05:04:19.938Z,1.80
2022-08-14T05:06:53.613Z,1.70
2022-08-14T05:09:24.203Z,1.77
2022-08-14T05:11:53.236Z,1.83
2022-08-14T05:14:45.277Z,1.83
2022-08-14T05:17:10.919Z,1.90
2022-08-14T05:19:44.269Z,2.10
2022-08-14T05:22:16.392Z,2.03
2022-08-14T05:24:48.783Z,1.80
2022-08-14T05:27:23.337Z,1.73
2022-08-14T05:29:55.174Z,2.00
2022-08-14T05:32:26.862Z,2.30
2022-08-14T05:34:58.944Z,1.90
2022-08-14T05:37:29.547Z,2.37
2022-08-14T05:39:59.373Z,2.83
2022-08-14T05:42:32.028Z,2.50
2022-08-14T05:45:04.052Z,2.63
2022-08-14T05:47:38.824Z,2.97
2022-08-14T05:50:17.486Z,3.00
2022-08-14T05:52:48.716Z,2.87
2022-08-14T05:55:17.000Z,2.97
2022-08-14T05:57:53.510Z,3.03
2022-08-14T06:00:28.548Z,2.60
2022-08-14T06:03:00.247Z,2.60
2022-08-14T06:05:30.292Z,2.70
2022-08-14T06:07:59.535Z,2.73
2022-08-14T06:10:29.083Z,2.43
2022-08-14T06:12:58.587Z,3.10
2022-08-14T06:15:29.944Z,3.17
2022-08-14T06:18:00.214Z,2.77
2022-08-14T06:20:31.164Z,2.80
2022-08-14T06:22:59.606Z,2.67
2022-08-14T06:25:28.296Z,3.00
2022-08-14T06:27:58.247Z,2.67
2022-08-14T06:30:46.039Z,2.70
2022-08-14T06:33:16.269Z,3.00
2022-08-14T06:35:48.671Z,3.10
2022-08-14T06:38:18.698Z,3.40
2022-08-14T06:40:47.793Z,3.60
2022-08-14T06:43:17.019Z,3.30
2022-08-14T06:45:50.358Z,2.90
2022-08-14T06:48:24.102Z,3.13
2022-08-14T06:50:54.790Z,3.67
2022-08-14T06:53:27.661Z,3.37
2022-08-14T06:56:01.905Z,3.30
2022-08-14T06:58:32.372Z,3.83
2022-08-14T07:01:27.072Z,4.43
2022-08-14T07:04:22.785Z,5.87
2022-08-14T07:06:54.876Z,5.87
2022-08-14T07:09:27.921Z,5.70
2022-08-14T07:11:56.480Z,5.30
2022-08-14T07:14:25.833Z,4.90
2022-08-14T07:16:54.340Z,5.47
2022-08-14T07:19:24.027Z,5.33
2022-08-14T07:21:54.402Z,5.93
2022-08-14T07:24:31.014Z,5.60
2022-08-14T07:26:59.741Z,6.90
2022-08-14T07:29:28.787Z,5.63
2022-08-14T07:31:57.125Z,6.37
2022-08-14T07:34:36.025Z,6.20
2022-08-14T07:37:06.908Z,7.30
2022-08-14T07:39:35.181Z,5.90
2022-08-14T07:42:03.335Z,5.33
2022-08-14T07:44:36.090Z,5.60
2022-08-14T07:47:15.950Z,5.10
2022-08-14T07:49:55.722Z,4.85
2022-08-14T07:52:30.562Z,5.60
2022-08-14T07:54:59.063Z,5.07
2022-08-14T07:57:28.266Z,5.00
2022-08-14T07:59:56.410Z,5.65
2022-08-14T08:02:32.697Z,7.03
2022-08-14T08:05:01.771Z,7.07
2022-08-14T08:07:32.315Z,7.60
2022-08-14T08:10:46.743Z,7.43
2022-08-14T08:13:15.525Z,6.10
2022-08-14T08:15:45.352Z,6.10
2022-08-14T08:18:20.560Z,6.22
2022-08-14T08:20:59.569Z,6.32
2022-08-14T08:23:40.819Z,5.97
2022-08-14T08:26:19.727Z,5.38
2022-08-14T08:28:57.582Z,6.28
2022-08-14T08:31:35.000Z,6.40
2022-08-14T08:34:07.240Z,5.10
2022-08-14T08:36:46.669Z,7.57
2022-08-14T08:39:22.711Z,7.20
2022-08-14T08:41:53.401Z,7.30
2022-08-14T08:44:31.575Z,7.28
2022-08-14T08:47:06.128Z,7.32
2022-08-14T08:49:52.716Z,6.50
2022-08-14T08:52:31.518Z,6.95
2022-08-14T08:55:16.065Z,7.63
2022-08-14T08:57:44.090Z,7.30
2022-08-14T09:00:25.172Z,8.45
2022-08-14T09:02:59.374Z,9.07
2022-08-14T09:05:28.886Z,8.05
2022-08-14T09:08:30.249Z,7.45
2022-08-14T09:11:01.751Z,8.75
2022-08-14T09:13:30.729Z,9.40
2022-08-14T09:16:01.072Z,7.13
2022-08-14T09:18:48.048Z,6.85
2022-08-14T09:21:16.609Z,8.30
2022-08-14T09:24:26.324Z,8.50
2022-08-14T09:26:34.489Z,7.95
2022-08-14T09:29:03.351Z,6.85
2022-08-14T09:31:42.536Z,7.78
2022-08-14T09:34:28.133Z,7.53
2022-08-14T09:37:20.616Z,8.18
2022-08-14T09:40:01.236Z,8.02
2022-08-14T09:42:51.328Z,8.18
2022-08-14T09:45:20.927Z,8.15
2022-08-14T09:47:52.495Z,7.10
2022-08-14T09:50:26.035Z,7.53
2022-08-14T09:52:58.243Z,8.23
2022-08-14T09:55:36.519Z,7.00
2022-08-14T09:58:19.720Z,6.50
2022-08-14T10:00:54.002Z,6.47
2022-08-14T10:03:33.951Z,5.65
2022-08-14T10:06:07.480Z,5.68
2022-08-14T10:08:51.137Z,5.63
2022-08-14T10:11:23.141Z,4.90
2022-08-14T10:13:56.113Z,5.85
2022-08-14T10:16:33.010Z,6.90
2022-08-14T10:19:10.263Z,6.60
2022-08-14T10:21:58.878Z,7.28
2022-08-14T10:24:36.651Z,5.32
2022-08-14T10:27:16.916Z,6.55
2022-08-14T10:29:50.742Z,6.72
2022-08-14T10:32:28.611Z,7.57
2022-08-14T10:35:13.723Z,6.60
2022-08-14T10:37:46.867Z,7.15
2022-08-14T10:40:37.354Z,6.20
2022-08-14T10:43:17.703Z,6.20
2022-08-14T10:46:03.708Z,6.90
2022-08-14T10:48:58.368Z,5.88
2022-08-14T10:51:29.992Z,7.10
2022-08-14T10:54:01.997Z,6.30
2022-08-14T10:56:52.165Z,6.68
2022-08-14T10:59:30.974Z,7.30
2022-08-14T11:02:17.623Z,6.45
2022-08-14T11:05:08.568Z,7.18
2022-08-14T11:07:39.737Z,5.55
2022-08-14T11:10:10.382Z,6.25
2022-08-14T11:12:48.039Z,7.03
2022-08-14T11:15:17.967Z,6.45
2022-08-14T11:17:48.843Z,6.40
2022-08-14T11:20:20.393Z,5.85
2022-08-14T11:22:58.800Z,6.28
2022-08-14T11:25:43.301Z,6.40
2022-08-14T11:28:14.671Z,5.63
2022-08-14T11:30:54.105Z,5.13
2022-08-14T11:33:31.141Z,5.60
2022-08-14T11:36:01.849Z,5.47
2022-08-14T11:38:37.858Z,4.80
2022-08-14T11:41:07.545Z,5.40
2022-08-14T11:43:40.600Z,5.53
2022-08-14T11:46:17.966Z,5.20
2022-08-14T11:49:04.217Z,4.70
2022-08-14T11:51:36.000Z,4.80
2022-08-14T11:54:06.285Z,5.78
2022-08-14T11:56:37.953Z,5.72
2022-08-14T11:59:10.226Z,5.45
2022-08-14T12:01:41.398Z,6.80
2022-08-14T12:04:32.710Z,5.18
2022-08-14T12:07:03.586Z,5.70
2022-08-14T12:09:33.314Z,4.55
2022-08-14T12:12:02.639Z,4.10
2022-08-14T12:14:35.675Z,4.07
2022-08-14T12:17:12.187Z,4.60
2022-08-14T12:19:51.485Z,5.65
2022-08-14T12:22:34.053Z,4.43
2022-08-14T12:25:06.025Z,4.60
2022-08-14T12:27:53.478Z,4.78
2022-08-14T12:30:42.597Z,6.22
2022-08-14T12:33:25.722Z,5.88
2022-08-14T12:36:05.489Z,7.10
2022-08-14T12:38:36.555Z,5.63
2022-08-14T12:41:10.624Z,5.03
2022-08-14T12:43:48.129Z,4.03
2022-08-14T12:46:27.502Z,5.07
2022-08-14T12:48:58.635Z,4.72
2022-08-14T12:51:30.861Z,4.72
2022-08-14T12:54:00.769Z,4.60
2022-08-14T12:56:33.033Z,4.22
2022-08-14T12:59:04.680Z,5.00
2022-08-14T13:02:00.150Z,5.88
2022-08-14T13:04:22.752Z,5.50
2022-08-14T13:06:53.823Z,4.50
2022-08-14T13:09:35.743Z,4.43
2022-08-14T13:12:32.690Z,3.55
2022-08-14T13:14:57.804Z,3.90
2022-08-14T13:17:27.085Z,3.30
2022-08-14T13:19:58.360Z,4.90
2022-08-14T13:22:32.322Z,4.32
2022-08-14T13:25:07.347Z,4.00
2022-08-14T13:27:39.185Z,3.95
2022-08-14T13:30:14.570Z,3.72
2022-08-14T13:32:53.246Z,3.85
2022-08-14T13:35:22.879Z,4.22
2022-08-14T13:37:53.584Z,5.07
2022-08-14T13:40:26.630Z,5.15
2022-08-14T13:42:57.640Z,4.35
2022-08-14T13:45:59.237Z,4.07
2022-08-14T13:48:19.203Z,3.88
2022-08-14T13:51:04.261Z,3.20
2022-08-14T13:53:38.219Z,3.17
2022-08-14T13:56:14.435Z,3.33
2022-08-14T13:58:46.875Z,3.00
2022-08-14T14:01:18.906Z,3.47
2022-08-14T14:03:51.539Z,3.65
2022-08-14T14:06:24.537Z,3.47
2022-08-14T14:08:59.063Z,3.83
2022-08-14T14:11:30.127Z,2.97
2022-08-14T14:14:00.457Z,3.22
2022-08-14T14:16:30.738Z,3.08
2022-08-14T14:19:06.747Z,2.70
2022-08-14T14:21:37.811Z,2.53
2022-08-14T14:24:07.790Z,2.88
2022-08-14T14:26:36.986Z,2.97
2022-08-14T14:29:07.684Z,3.08
2022-08-14T14:31:38.869Z,2.88
2022-08-14T14:34:19.935Z,2.80
2022-08-14T14:37:05.042Z,2.58
2022-08-14T14:39:38.132Z,2.58
2022-08-14T14:42:31.931Z,2.70
2022-08-14T14:45:05.779Z,2.30
2022-08-14T14:47:34.451Z,2.42
2022-08-14T14:50:03.663Z,2.28
2022-08-14T14:52:32.501Z,2.38
2022-08-14T14:55:08.480Z,2.22
2022-08-14T14:57:36.802Z,2.45
2022-08-14T15:00:12.645Z,2.40
2022-08-14T15:02:42.865Z,2.80
2022-08-14T15:05:14.133Z,2.97
2022-08-14T15:07:42.542Z,3.20
2022-08-14T15:10:27.293Z,3.42
2022-08-14T15:13:04.182Z,2.97
2022-08-14T15:15:33.067Z,2.70
2022-08-14T15:18:01.674Z,2.80
2022-08-14T15:20:31.218Z,3.00
2022-08-14T15:23:12.379Z,3.13
2022-08-14T15:25:42.273Z,2.90
2022-08-14T15:28:13.143Z,2.58
2022-08-14T15:30:57.924Z,2.85
2022-08-14T15:34:13.311Z,3.80
2022-08-14T15:36:29.880Z,4.05
2022-08-14T15:38:59.042Z,3.70
2022-08-14T15:41:41.689Z,3.63
2022-08-14T15:44:25.355Z,3.00
2022-08-14T15:46:55.084Z,2.80
2022-08-14T15:49:24.356Z,2.75
2022-08-14T15:52:04.258Z,2.92
2022-08-14T15:54:33.955Z,3.03
2022-08-14T15:57:06.352Z,2.95
2022-08-14T15:59:50.647Z,3.10
2022-08-14T16:02:24.603Z,3.15
2022-08-14T16:04:56.070Z,3.20
2022-08-14T16:07:27.074Z,3.10
2022-08-14T16:10:25.670Z,3.00
2022-08-14T16:12:54.501Z,2.85
2022-08-14T16:15:23.451Z,2.70
2022-08-14T16:17:53.454Z,3.00
2022-08-14T16:20:41.823Z,3.67
2022-08-14T16:23:12.112Z,4.10
2022-08-14T16:25:44.532Z,6.13
2022-08-14T16:28:27.407Z,6.57
2022-08-14T16:30:56.637Z,5.82
2022-08-14T16:33:27.896Z,5.10
2022-08-14T16:36:29.849Z,4.72
2022-08-14T16:39:01.340Z,4.00
2022-08-14T16:41:29.971Z,3.80
2022-08-14T16:44:02.439Z,3.17
2022-08-14T16:46:35.285Z,2.90
2022-08-14T16:49:05.638Z,2.53
2022-08-14T16:51:36.386Z,2.70
2022-08-14T16:54:20.877Z,2.45
2022-08-14T16:57:13.630Z,2.30
2022-08-14T16:59:51.814Z,1.95
2022-08-14T17:02:35.090Z,2.10
2022-08-14T17:05:20.769Z,1.80
2022-08-14T17:08:33.450Z,3.40
2022-08-14T17:11:10.824Z,2.67
2022-08-14T17:13:58.639Z,3.10
2022-08-14T17:16:35.885Z,3.33
2022-08-14T17:19:17.551Z,3.47
2022-08-14T17:21:46.957Z,3.55
2022-08-14T17:24:56.788Z,3.33
2022-08-14T17:27:06.108Z,3.50
2022-08-14T17:29:44.327Z,3.65
2022-08-14T17:32:29.831Z,3.97
2022-08-14T17:35:16.222Z,3.60
2022-08-14T17:37:55.495Z,2.90
2022-08-14T17:40:30.391Z,2.90
2022-08-14T17:43:02.406Z,3.00
2022-08-14T17:45:46.784Z,2.42
2022-08-14T17:49:15.062Z,2.85
2022-08-14T17:51:24.157Z,2.58
2022-08-14T17:54:02.322Z,2.13
2022-08-14T17:56:31.790Z,2.20
2022-08-14T17:59:02.826Z,1.63
2022-08-14T18:01:37.628Z,1.70
2022-08-14T18:04:24.495Z,1.90
2022-08-14T18:07:16.763Z,1.80
2022-08-14T18:09:56.910Z,1.63
2022-08-14T18:12:36.382Z,1.60
2022-08-14T18:15:16.184Z,1.60
2022-08-14T18:17:53.251Z,1.80
2022-08-14T18:21:42.449Z,1.42
2022-08-14T18:23:14.278Z,1.40
2022-08-14T18:25:49.447Z,1.40
2022-08-14T18:28:51.111Z,1.40
2022-08-14T18:31:42.230Z,1.38
2022-08-14T18:34:30.925Z,1.30
2022-08-14T18:37:16.759Z,2.58
2022-08-14T18:40:03.299Z,1.10
2022-08-14T18:42:44.709Z,1.10
2022-08-14T18:45:18.535Z,1.30
2022-08-14T18:48:14.690Z,1.38
2022-08-14T18:50:52.287Z,1.40
2022-08-14T18:53:24.755Z,1.20
2022-08-14T18:55:56.272Z,1.30
2022-08-14T18:58:34.455Z,1.10
2022-08-14T19:01:04.491Z,1.10
2022-08-14T19:03:58.498Z,1.30
2022-08-14T19:06:56.029Z,1.15
2022-08-14T19:09:57.821Z,1.20
2022-08-14T19:13:03.102Z,1.30
2022-08-14T19:15:34.330Z,1.20
2022-08-14T19:18:17.897Z,1.30
2022-08-14T19:20:56.510Z,1.27
2022-08-14T19:23:42.903Z,1.05
2022-08-14T19:26:36.173Z,1.27
2022-08-14T19:29:39.472Z,1.42
2022-08-14T19:32:39.632Z,1.20
2022-08-14T19:35:56.042Z,1.13
2022-08-14T19:38:54.991Z,1.40
2022-08-14T19:41:30.147Z,1.30
2022-08-14T19:44:10.456Z,1.35
2022-08-14T19:47:00.985Z,0.90
2022-08-14T19:50:09.100Z,1.35
2022-08-14T19:52:22.511Z,1.38
2022-08-14T19:54:51.514Z,1.27
2022-08-14T19:57:23.788Z,1.50
2022-08-14T20:00:01.954Z,1.55
2022-08-14T20:02:41.160Z,1.60
2022-08-14T20:05:11.365Z,1.55
2022-08-14T20:07:59.091Z,1.70
2022-08-14T20:11:03.253Z,1.35
2022-08-14T20:13:32.129Z,1.40
2022-08-14T20:16:12.067Z,1.50
2022-08-14T20:18:51.992Z,1.80
2022-08-14T20:21:21.545Z,1.50
2022-08-14T20:23:50.268Z,1.80
2022-08-14T20:26:31.539Z,1.88
2022-08-14T20:29:05.232Z,1.58
2022-08-14T20:31:38.331Z,1.58
2022-08-14T20:34:19.393Z,1.35
2022-08-14T20:37:04.761Z,1.73
2022-08-14T20:39:43.553Z,1.65
2022-08-14T20:42:31.945Z,1.50
2022-08-14T20:45:21.494Z,1.35
2022-08-14T20:47:57.786Z,1.45
2022-08-14T20:50:28.623Z,1.60
2022-08-14T20:52:58.015Z,1.48
2022-08-14T20:55:29.297Z,1.52
2022-08-14T20:57:59.466Z,1.60
2022-08-14T21:00:52.242Z,1.80
2022-08-14T21:03:31.148Z,1.65
2022-08-14T21:06:01.496Z,1.88
2022-08-14T21:08:47.967Z,2.72
2022-08-14T21:11:18.858Z,1.48
2022-08-14T21:14:20.035Z,1.80
2022-08-14T21:16:39.339Z,1.80
2022-08-14T21:19:16.516Z,1.80
2022-08-14T21:21:54.807Z,1.80
2022-08-14T21:24:39.536Z,2.00
2022-08-14T21:27:20.476Z,1.85
2022-08-14T21:29:55.424Z,1.67
2022-08-14T21:32:35.194Z,1.88
2022-08-14T21:35:08.131Z,2.20
2022-08-14T21:37:44.034Z,2.17
2022-08-14T21:40:40.237Z,2.00
2022-08-14T21:43:05.013Z,1.98
2022-08-14T21:45:35.770Z,1.67
2022-08-14T21:48:10.992Z,2.00
2022-08-14T21:51:02.262Z,2.15
2022-08-14T21:53:34.128Z,1.80
2022-08-14T21:56:03.849Z,3.15
2022-08-14T21:58:52.712Z,2.00
2022-08-14T22:01:21.690Z,2.13
2022-08-14T22:03:55.038Z,2.03
2022-08-14T22:06:28.487Z,2.15
2022-08-14T22:08:58.335Z,1.80
2022-08-14T22:11:27.638Z,1.92
2022-08-14T22:13:56.687Z,1.50
2022-08-14T22:16:58.703Z,1.60
2022-08-14T22:19:21.487Z,1.83
2022-08-14T22:22:01.380Z,1.75
2022-08-14T22:24:38.004Z,1.92
2022-08-14T22:27:18.465Z,1.88
2022-08-14T22:29:54.968Z,2.00
2022-08-14T22:32:35.267Z,2.00
2022-08-14T22:35:15.588Z,1.80
2022-08-14T22:37:45.893Z,1.77
2022-08-14T22:41:00.053Z,1.88
2022-08-14T22:43:19.730Z,1.38
2022-08-14T22:45:55.131Z,1.70
2022-08-14T22:48:23.711Z,1.75
2022-08-14T22:50:53.366Z,1.40
2022-08-14T22:53:23.100Z,1.75
2022-08-14T22:55:52.348Z,1.75
2022-08-14T22:58:30.119Z,1.70
2022-08-14T23:01:00.234Z,1.70
2022-08-14T23:03:28.888Z,1.60
2022-08-14T23:05:57.278Z,1.52
2022-08-14T23:08:58.890Z,1.75
2022-08-14T23:11:16.334Z,1.88
2022-08-14T23:13:46.093Z,1.80
2022-08-14T23:16:20.078Z,1.75
2022-08-14T23:18:53.983Z,1.75
2022-08-14T23:21:24.207Z,1.80
2022-08-14T23:23:57.092Z,1.80
2022-08-14T23:26:48.245Z,1.60
2022-08-14T23:29:15.689Z,1.60
2022-08-14T23:31:45.818Z,1.63
2022-08-14T23:34:20.771Z,1.65
2022-08-14T23:36:54.481Z,1.70
2022-08-14T23:39:29.769Z,1.80
2022-08-14T23:42:02.296Z,1.80
2022-08-14T23:44:35.355Z,2.10
2022-08-14T23:47:11.539Z,1.80
2022-08-14T23:50:00.587Z,1.50
2022-08-14T23:52:51.015Z,1.60
2022-08-14T23:55:20.241Z,1.40
2022-08-14T23:57:58.295Z,1.67
